Time;durP1;ratioP1;P1;durP2;ratioP2;P2;SDS_P1;SDS_P2;PMS_P1;PMS_P2;Temp;Humidity;BMP_temperature;BMP_pressure;BME280_temperature;BME280_humidity;BME280_pressure;Samples;Min_cycle;Max_cycle;Signal;HPM_P1;HPM_P2
2022/03/25 00:01:38;;;;;;;1.83;1.70;;;;;;;;;;5005409;28;20030;-76
2022/03/25 00:04:07;;;;;;;5.65;4.18;;;;;;;;;;5010461;28;20030;-76
2022/03/25 00:06:35;;;;;;;4.15;3.83;;;;;;;;;;5007669;28;20446;-76
2022/03/25 00:09:00;;;;;;;6.47;5.13;;;;;;;;;;5008323;28;20041;-76
2022/03/25 00:11:30;;;;;;;9.82;5.70;;;;;;;;;;5010582;28;20021;-76
2022/03/25 00:13:58;;;;;;;3.42;3.22;;;;;;;;;;5009188;28;20044;-76
2022/03/25 00:16:24;;;;;;;5.10;3.17;;;;;;;;;;5008366;28;20030;-77
2022/03/25 00:18:54;;;;;;;6.03;5.15;;;;;;;;;;5010992;28;20172;-77
2022/03/25 00:21:19;;;;;;;4.25;3.15;;;;;;;;;;5019803;28;20440;-76
2022/03/25 00:23:47;;;;;;;5.50;3.33;;;;;;;;;;5007626;28;20034;-75
2022/03/25 00:26:12;;;;;;;5.57;4.57;;;;;;;;;;4989043;28;20069;-75
2022/03/25 00:28:39;;;;;;;5.85;3.83;;;;;;;;;;5004516;28;20054;-76
2022/03/25 00:31:50;;;;;;;6.18;4.40;;;;;;;;;;5002533;28;20026;-76
2022/03/25 00:33:51;;;;;;;4.65;4.07;;;;;;;;;;5003302;28;20131;-76
2022/03/25 00:36:23;;;;;;;5.60;4.47;;;;;;;;;;5005799;28;20491;-75
2022/03/25 00:38:51;;;;;;;2.60;2.40;;;;;;;;;;5012919;28;20034;-75
2022/03/25 00:41:16;;;;;;;4.63;4.20;;;;;;;;;;4993470;28;20285;-77
2022/03/25 00:43:43;;;;;;;5.25;4.30;;;;;;;;;;5026359;28;20110;-77
2022/03/25 00:46:10;;;;;;;5.63;2.75;;;;;;;;;;5003640;28;20045;-78
2022/03/25 00:48:36;;;;;;;3.60;3.15;;;;;;;;;;5008066;28;20026;-76
2022/03/25 00:51:34;;;;;;;5.15;3.13;;;;;;;;;;5010980;28;20041;-76
2022/03/25 00:57:37;;;;;;;2.08;1.88;;;;;;;;;;4932036;29;20031;-76
2022/03/25 01:00:07;;;;;;;5.60;4.05;;;;;;;;;;5002710;28;20108;-76
2022/03/25 01:02:34;;;;;;;2.78;2.28;;;;;;;;;;5011178;28;20018;-76
2022/03/25 01:05:02;;;;;;;3.67;3.42;;;;;;;;;;5010979;28;20509;-77
2022/03/25 01:07:27;;;;;;;3.50;3.25;;;;;;;;;;5012057;28;20068;-76
2022/03/25 01:09:52;;;;;;;4.95;4.15;;;;;;;;;;5009536;28;20057;-76
2022/03/25 01:12:19;;;;;;;2.90;2.60;;;;;;;;;;5013274;28;20032;-77
2022/03/25 01:14:48;;;;;;;4.68;4.10;;;;;;;;;;5012240;28;20026;-77
2022/03/25 01:17:14;;;;;;;1.83;1.73;;;;;;;;;;5014387;28;20034;-76
2022/03/25 01:19:40;;;;;;;3.78;2.33;;;;;;;;;;5013461;28;20030;-77
2022/03/25 01:22:06;;;;;;;7.10;5.20;;;;;;;;;;5015772;28;20077;-77
2022/03/25 01:24:32;;;;;;;5.53;5.10;;;;;;;;;;4999962;28;20064;-77
2022/03/25 01:26:59;;;;;;;6.15;3.17;;;;;;;;;;5015056;28;20061;-74
2022/03/25 01:29:24;;;;;;;2.78;2.53;;;;;;;;;;5012642;28;20034;-76
2022/03/25 01:31:49;;;;;;;3.80;3.08;;;;;;;;;;5013332;28;20374;-77
2022/03/25 01:34:17;;;;;;;6.47;4.68;;;;;;;;;;5007821;28;20386;-77
2022/03/25 01:36:43;;;;;;;3.92;3.63;;;;;;;;;;5014240;28;20033;-75
2022/03/25 01:39:08;;;;;;;4.38;3.83;;;;;;;;;;5016291;28;20022;-76
2022/03/25 01:41:33;;;;;;;3.50;3.20;;;;;;;;;;5010011;28;20487;-77
2022/03/25 01:44:00;;;;;;;3.55;3.20;;;;;;;;;;5011879;28;20022;-76
2022/03/25 01:46:26;;;;;;;2.25;1.80;;;;;;;;;;5007154;28;20049;-76
2022/03/25 01:48:52;;;;;;;4.72;2.72;;;;;;;;;;5011319;28;20048;-76
2022/03/25 01:51:34;;;;;;;6.88;3.88;;;;;;;;;;5006080;28;20108;-77
2022/03/25 01:54:01;;;;;;;5.93;4.45;;;;;;;;;;5012369;28;20466;-77
2022/03/25 01:56:27;;;;;;;4.57;3.15;;;;;;;;;;5009613;28;20087;-77
2022/03/25 01:58:54;;;;;;;4.72;4.22;;;;;;;;;;5011098;28;20374;-76
2022/03/25 02:01:20;;;;;;;5.55;4.32;;;;;;;;;;5010082;28;20026;-77
2022/03/25 02:03:46;;;;;;;5.55;4.47;;;;;;;;;;5009383;28;20033;-77
2022/03/25 02:06:12;;;;;;;3.97;2.97;;;;;;;;;;5009732;28;20025;-76
2022/03/25 02:08:37;;;;;;;3.75;3.38;;;;;;;;;;5007127;28;20076;-76
2022/03/25 02:11:02;;;;;;;3.70;1.95;;;;;;;;;;5011747;28;20045;-77
2022/03/25 02:13:28;;;;;;;2.00;1.90;;;;;;;;;;5010516;28;20130;-77
2022/03/25 02:15:55;;;;;;;3.47;3.15;;;;;;;;;;5011661;28;20029;-77
2022/03/25 02:18:21;;;;;;;7.85;4.60;;;;;;;;;;5011563;28;20068;-78
2022/03/25 02:20:49;;;;;;;3.30;2.60;;;;;;;;;;5010275;28;20073;-77
2022/03/25 02:23:15;;;;;;;9.52;5.10;;;;;;;;;;5020808;28;20029;-76
2022/03/25 02:25:41;;;;;;;7.85;3.67;;;;;;;;;;5009831;28;20041;-76
2022/03/25 02:28:09;;;;;;;5.75;2.70;;;;;;;;;;5012735;28;20048;-77
2022/03/25 02:30:36;;;;;;;4.55;3.13;;;;;;;;;;5014682;28;20029;-77
2022/03/25 02:33:04;;;;;;;2.10;2.00;;;;;;;;;;5013304;28;20025;-76
2022/03/25 02:35:35;;;;;;;3.30;3.00;;;;;;;;;;5010407;28;20026;-77
2022/03/25 02:38:03;;;;;;;3.60;3.30;;;;;;;;;;5012068;28;20026;-77
2022/03/25 02:40:29;;;;;;;4.50;3.90;;;;;;;;;;5014410;28;20029;-77
2022/03/25 02:42:54;;;;;;;3.92;3.55;;;;;;;;;;4997589;28;20355;-77
2022/03/25 02:45:20;;;;;;;4.35;3.80;;;;;;;;;;5014854;28;20037;-78
2022/03/25 02:47:48;;;;;;;3.45;2.97;;;;;;;;;;5014704;28;20359;-77
2022/03/25 02:50:16;;;;;;;2.33;2.03;;;;;;;;;;5020310;28;20026;-79
2022/03/25 02:52:41;;;;;;;3.92;3.55;;;;;;;;;;5022218;28;20176;-78
2022/03/25 02:55:12;;;;;;;2.50;2.30;;;;;;;;;;5018264;28;20443;-79
2022/03/25 02:57:38;;;;;;;5.13;4.65;;;;;;;;;;5016199;28;20080;-75
2022/03/25 03:00:08;;;;;;;4.10;2.03;;;;;;;;;;5015250;28;20034;-76
2022/03/25 03:02:36;;;;;;;2.28;2.08;;;;;;;;;;5012518;28;20018;-75
2022/03/25 03:05:01;;;;;;;2.70;1.73;;;;;;;;;;5006468;28;20101;-76
2022/03/25 03:07:27;;;;;;;5.32;3.15;;;;;;;;;;5012245;28;20531;-75
2022/03/25 03:09:52;;;;;;;3.58;2.85;;;;;;;;;;5013777;28;20030;-74
2022/03/25 03:12:18;;;;;;;3.40;3.13;;;;;;;;;;5014220;28;20332;-74
2022/03/25 03:14:43;;;;;;;4.20;3.83;;;;;;;;;;5028019;28;20351;-75
2022/03/25 03:17:10;;;;;;;4.15;3.75;;;;;;;;;;5013608;28;20025;-77
2022/03/25 03:19:36;;;;;;;4.30;2.90;;;;;;;;;;4980969;28;20443;-75
2022/03/25 03:22:01;;;;;;;5.90;4.30;;;;;;;;;;5022311;28;20033;-77
2022/03/25 03:24:26;;;;;;;6.75;3.38;;;;;;;;;;5013101;28;20128;-77
2022/03/25 03:26:54;;;;;;;5.13;4.32;;;;;;;;;;5014290;28;20038;-76
2022/03/25 03:29:20;;;;;;;4.60;3.00;;;;;;;;;;5013390;28;20034;-77
2022/03/25 03:31:48;;;;;;;8.48;4.72;;;;;;;;;;5013658;28;20030;-76
2022/03/25 03:34:15;;;;;;;4.13;3.75;;;;;;;;;;5013760;28;20539;-75
2022/03/25 03:36:43;;;;;;;6.13;1.95;;;;;;;;;;5002507;28;20391;-75
2022/03/25 03:39:11;;;;;;;6.00;4.35;;;;;;;;;;5012264;28;20926;-76
2022/03/25 03:41:41;;;;;;;5.68;3.55;;;;;;;;;;5014564;28;20455;-76
2022/03/25 03:44:09;;;;;;;2.40;2.30;;;;;;;;;;5014247;28;20030;-77
2022/03/25 03:46:39;;;;;;;2.03;1.92;;;;;;;;;;5017748;28;20034;-78
2022/03/25 03:49:05;;;;;;;2.95;2.75;;;;;;;;;;5005961;28;20030;-75
2022/03/25 03:51:31;;;;;;;4.45;4.13;;;;;;;;;;5006248;28;20117;-76
2022/03/25 03:53:57;;;;;;;2.30;2.13;;;;;;;;;;5013832;28;20026;-76
2022/03/25 03:56:25;;;;;;;2.95;2.10;;;;;;;;;;5013475;28;20088;-76
2022/03/25 03:58:53;;;;;;;3.85;3.50;;;;;;;;;;5009153;28;20111;-75
2022/03/25 04:01:19;;;;;;;3.03;2.85;;;;;;;;;;5008424;28;20446;-75
2022/03/25 04:03:44;;;;;;;4.38;3.95;;;;;;;;;;5011129;28;20136;-77
2022/03/25 04:06:12;;;;;;;5.13;4.40;;;;;;;;;;5014850;28;20124;-76
2022/03/25 04:08:37;;;;;;;5.65;5.13;;;;;;;;;;5011605;28;20455;-75
2022/03/25 04:11:03;;;;;;;5.45;4.25;;;;;;;;;;5008019;28;20122;-77
2022/03/25 04:13:28;;;;;;;4.47;3.35;;;;;;;;;;5013071;28;20321;-75
2022/03/25 04:15:59;;;;;;;2.75;2.53;;;;;;;;;;5027600;28;20040;-76
2022/03/25 04:18:24;;;;;;;5.40;4.03;;;;;;;;;;5009206;28;20594;-75
2022/03/25 04:20:52;;;;;;;4.07;3.47;;;;;;;;;;5012963;28;20179;-75
2022/03/25 04:23:17;;;;;;;4.78;2.58;;;;;;;;;;5013120;28;20030;-76
2022/03/25 04:25:46;;;;;;;3.92;2.38;;;;;;;;;;5010950;28;20029;-76
2022/03/25 04:28:11;;;;;;;2.95;2.45;;;;;;;;;;4997980;28;20033;-76
2022/03/25 04:30:40;;;;;;;4.03;3.72;;;;;;;;;;4996245;28;20503;-75
2022/03/25 04:33:06;;;;;;;5.30;3.92;;;;;;;;;;5008733;28;20029;-75
2022/03/25 04:35:32;;;;;;;5.07;3.67;;;;;;;;;;5013954;28;20033;-75
2022/03/25 04:37:58;;;;;;;3.63;3.28;;;;;;;;;;5013331;28;20025;-76
2022/03/25 04:40:28;;;;;;;3.97;3.15;;;;;;;;;;5007487;28;20458;-76
2022/03/25 04:42:54;;;;;;;6.70;3.72;;;;;;;;;;5009841;28;20048;-76
2022/03/25 04:45:23;;;;;;;3.08;2.78;;;;;;;;;;4996248;28;20026;-76
2022/03/25 04:47:50;;;;;;;3.90;3.50;;;;;;;;;;4996036;28;20034;-77
2022/03/25 04:50:16;;;;;;;2.42;2.30;;;;;;;;;;5015476;28;20105;-76
2022/03/25 04:52:41;;;;;;;5.00;4.55;;;;;;;;;;5017195;28;20113;-77
2022/03/25 04:55:13;;;;;;;2.22;2.05;;;;;;;;;;5008962;28;20033;-78
2022/03/25 04:57:39;;;;;;;5.07;4.13;;;;;;;;;;5015701;28;20048;-76
2022/03/25 05:00:14;;;;;;;4.97;3.67;;;;;;;;;;4999997;28;20514;-77
2022/03/25 05:02:39;;;;;;;3.92;3.15;;;;;;;;;;5013638;28;20042;-76
2022/03/25 05:05:05;;;;;;;5.30;4.82;;;;;;;;;;5015415;28;20037;-77
2022/03/25 05:07:33;;;;;;;3.75;2.55;;;;;;;;;;4995919;28;20509;-77
2022/03/25 05:10:00;;;;;;;6.15;2.75;;;;;;;;;;5003093;28;20050;-77
2022/03/25 05:12:27;;;;;;;5.35;4.82;;;;;;;;;;5016188;28;20026;-76
2022/03/25 05:14:53;;;;;;;7.72;4.75;;;;;;;;;;5015091;28;20041;-77
2022/03/25 05:17:19;;;;;;;3.53;3.17;;;;;;;;;;5010073;28;20113;-76
2022/03/25 05:19:46;;;;;;;3.45;3.15;;;;;;;;;;5016304;28;20149;-77
2022/03/25 05:22:14;;;;;;;4.88;4.38;;;;;;;;;;5016567;28;20030;-76
2022/03/25 05:24:40;;;;;;;3.63;3.33;;;;;;;;;;5017083;28;20026;-77
2022/03/25 05:27:05;;;;;;;5.40;3.13;;;;;;;;;;5016191;28;20030;-78
2022/03/25 05:29:30;;;;;;;4.78;4.18;;;;;;;;;;5011403;28;20348;-76
2022/03/25 05:31:56;;;;;;;5.95;2.92;;;;;;;;;;5013261;28;20026;-77
2022/03/25 05:34:21;;;;;;;7.05;5.43;;;;;;;;;;5015677;28;20029;-76
2022/03/25 05:36:52;;;;;;;3.20;2.15;;;;;;;;;;5006115;28;20486;-77
2022/03/25 05:39:17;;;;;;;2.92;2.72;;;;;;;;;;5015886;28;20109;-77
2022/03/25 05:41:43;;;;;;;6.10;4.47;;;;;;;;;;5030599;28;20105;-77
2022/03/25 05:44:08;;;;;;;2.63;2.22;;;;;;;;;;5015837;28;20037;-78
2022/03/25 05:46:34;;;;;;;5.43;4.45;;;;;;;;;;5015087;28;20037;-78
2022/03/25 05:49:00;;;;;;;3.35;2.63;;;;;;;;;;5023574;28;20631;-78
2022/03/25 05:51:30;;;;;;;3.03;2.83;;;;;;;;;;5016776;28;20037;-77
2022/03/25 05:53:55;;;;;;;2.40;2.25;;;;;;;;;;5014554;28;20037;-77
2022/03/25 05:56:21;;;;;;;7.72;3.40;;;;;;;;;;5026862;28;20022;-76
2022/03/25 05:58:49;;;;;;;4.70;3.85;;;;;;;;;;4997023;28;20025;-77
2022/03/25 06:01:19;;;;;;;2.90;2.25;;;;;;;;;;5004895;28;20034;-76
2022/03/25 06:03:44;;;;;;;3.63;1.38;;;;;;;;;;5025677;28;20057;-76
2022/03/25 06:06:12;;;;;;;4.07;3.45;;;;;;;;;;5026249;28;20026;-77
2022/03/25 06:08:38;;;;;;;3.67;3.08;;;;;;;;;;5017344;28;20088;-78
2022/03/25 06:11:05;;;;;;;4.28;3.88;;;;;;;;;;5011933;28;20033;-76
2022/03/25 06:13:33;;;;;;;4.63;4.28;;;;;;;;;;5012139;28;20030;-75
2022/03/25 06:15:58;;;;;;;4.10;2.55;;;;;;;;;;5015301;28;20168;-75
2022/03/25 06:18:26;;;;;;;1.30;1.20;;;;;;;;;;5013899;28;20451;-75
2022/03/25 06:20:51;;;;;;;3.42;3.17;;;;;;;;;;5015076;28;20041;-76
2022/03/25 06:23:21;;;;;;;4.93;4.00;;;;;;;;;;5015670;28;20030;-77
2022/03/25 06:25:47;;;;;;;2.50;2.33;;;;;;;;;;5013737;28;20037;-75
2022/03/25 06:28:14;;;;;;;3.80;3.47;;;;;;;;;;5014365;28;20132;-75
2022/03/25 06:30:40;;;;;;;3.53;3.33;;;;;;;;;;5014249;28;20459;-75
2022/03/25 06:33:09;;;;;;;6.65;3.53;;;;;;;;;;5015023;28;20037;-76
2022/03/25 06:35:36;;;;;;;2.67;2.47;;;;;;;;;;5011286;28;20578;-75
2022/03/25 06:38:01;;;;;;;9.75;3.20;;;;;;;;;;5015389;28;20439;-75
2022/03/25 06:40:26;;;;;;;4.35;3.92;;;;;;;;;;5026109;28;20077;-75
2022/03/25 06:42:57;;;;;;;6.78;4.22;;;;;;;;;;5012336;28;20045;-76
2022/03/25 06:45:25;;;;;;;4.07;3.55;;;;;;;;;;5014068;28;20036;-75
2022/03/25 06:47:51;;;;;;;3.63;2.58;;;;;;;;;;5013899;28;20407;-76
2022/03/25 06:50:20;;;;;;;5.68;4.60;;;;;;;;;;5014650;28;20040;-76
2022/03/25 06:52:49;;;;;;;4.40;3.05;;;;;;;;;;5013182;28;20032;-76
2022/03/25 06:55:15;;;;;;;4.70;4.28;;;;;;;;;;4996937;28;20026;-76
2022/03/25 06:57:40;;;;;;;4.72;4.22;;;;;;;;;;5012275;28;20498;-76
2022/03/25 07:00:11;;;;;;;5.57;3.90;;;;;;;;;;5006473;28;20042;-75
2022/03/25 07:02:37;;;;;;;3.13;2.92;;;;;;;;;;5015334;28;20025;-75
2022/03/25 07:05:03;;;;;;;4.93;4.05;;;;;;;;;;5014491;28;20096;-75
2022/03/25 07:07:28;;;;;;;7.10;4.88;;;;;;;;;;5014153;28;20105;-76
2022/03/25 07:09:54;;;;;;;7.57;5.65;;;;;;;;;;4996994;28;20121;-77
2022/03/25 07:12:20;;;;;;;7.00;5.05;;;;;;;;;;5013564;28;20034;-77
2022/03/25 07:14:45;;;;;;;7.53;5.18;;;;;;;;;;5014017;28;20443;-76
2022/03/25 07:17:10;;;;;;;5.07;2.85;;;;;;;;;;5012603;28;20028;-76
2022/03/25 07:19:36;;;;;;;4.03;3.40;;;;;;;;;;4994919;28;20157;-76
2022/03/25 07:22:01;;;;;;;7.78;5.35;;;;;;;;;;5013670;28;20025;-75
2022/03/25 07:24:26;;;;;;;6.22;3.72;;;;;;;;;;5014413;28;20049;-76
2022/03/25 07:26:52;;;;;;;6.97;3.95;;;;;;;;;;5014358;28;20451;-76
2022/03/25 07:29:17;;;;;;;6.38;5.78;;;;;;;;;;5013291;28;20049;-77
2022/03/25 07:31:45;;;;;;;6.72;4.78;;;;;;;;;;5013682;28;20037;-76
2022/03/25 07:34:10;;;;;;;4.45;4.13;;;;;;;;;;5014412;28;20068;-76
2022/03/25 07:36:35;;;;;;;5.63;3.85;;;;;;;;;;5013670;28;20383;-77
2022/03/25 07:39:04;;;;;;;3.63;3.33;;;;;;;;;;5013830;28;20034;-76
2022/03/25 07:41:29;;;;;;;11.90;5.38;;;;;;;;;;5013523;28;20108;-75
2022/03/25 07:43:55;;;;;;;8.05;4.95;;;;;;;;;;5013700;28;20227;-77
2022/03/25 07:46:20;;;;;;;5.57;4.88;;;;;;;;;;5013207;28;20037;-76
2022/03/25 07:48:46;;;;;;;3.55;3.08;;;;;;;;;;5013206;28;20448;-76
2022/03/25 07:51:11;;;;;;;7.85;5.07;;;;;;;;;;5015423;28;20034;-77
2022/03/25 07:53:37;;;;;;;16.63;5.15;;;;;;;;;;5012663;28;20040;-76
2022/03/25 07:56:02;;;;;;;7.68;4.70;;;;;;;;;;5004437;28;20033;-76
2022/03/25 07:58:28;;;;;;;14.00;6.35;;;;;;;;;;5013645;28;20037;-76
2022/03/25 08:00:56;;;;;;;4.43;3.55;;;;;;;;;;5012607;28;20037;-77
2022/03/25 08:03:22;;;;;;;5.30;4.60;;;;;;;;;;5014302;28;20371;-77
2022/03/25 08:05:48;;;;;;;6.43;4.65;;;;;;;;;;5013429;28;20022;-77
2022/03/25 08:08:19;;;;;;;9.05;5.55;;;;;;;;;;5023285;28;20472;-77
2022/03/25 08:10:45;;;;;;;4.43;4.05;;;;;;;;;;5011341;28;20029;-76
2022/03/25 08:13:11;;;;;;;12.10;6.93;;;;;;;;;;5013688;28;20446;-76
2022/03/25 08:15:37;;;;;;;8.15;6.00;;;;;;;;;;5012322;28;20049;-76
2022/03/25 08:18:13;;;;;;;7.05;5.60;;;;;;;;;;4994399;28;20034;-77
2022/03/25 08:20:43;;;;;;;7.53;5.65;;;;;;;;;;5013979;28;20037;-78
2022/03/25 08:28:52;;;;;;;6.63;4.95;;;;;;;;;;4972219;28;21850;-77
2022/03/25 08:31:18;;;;;;;9.02;5.22;;;;;;;;;;5001106;28;20030;-76
2022/03/25 08:33:43;;;;;;;9.90;6.30;;;;;;;;;;5009166;28;20034;-75
2022/03/25 08:36:09;;;;;;;13.18;6.85;;;;;;;;;;5010237;28;20068;-77
2022/03/25 08:38:34;;;;;;;13.20;5.40;;;;;;;;;;5007651;28;20021;-77
2022/03/25 08:41:00;;;;;;;7.43;5.28;;;;;;;;;;4994382;28;20444;-76
2022/03/25 08:43:26;;;;;;;7.90;5.30;;;;;;;;;;5009409;28;20034;-77
2022/03/25 08:45:54;;;;;;;8.93;5.50;;;;;;;;;;5007218;28;20030;-77
2022/03/25 08:48:19;;;;;;;9.57;5.20;;;;;;;;;;5012356;28;20025;-76
2022/03/25 08:50:44;;;;;;;10.32;6.40;;;;;;;;;;5011573;28;20348;-77
2022/03/25 08:53:10;;;;;;;9.65;5.53;;;;;;;;;;5008413;28;20925;-76
2022/03/25 08:55:38;;;;;;;9.13;5.28;;;;;;;;;;5011488;28;20044;-77
2022/03/25 08:58:05;;;;;;;10.52;5.72;;;;;;;;;;5013206;28;20461;-76
2022/03/25 09:00:30;;;;;;;5.13;3.55;;;;;;;;;;5013023;28;20030;-76
2022/03/25 09:02:57;;;;;;;9.35;5.35;;;;;;;;;;5012893;28;20037;-76
2022/03/25 09:05:22;;;;;;;10.82;6.22;;;;;;;;;;5013181;28;20506;-76
2022/03/25 09:07:48;;;;;;;7.10;5.03;;;;;;;;;;5013132;28;20033;-77
2022/03/25 09:10:17;;;;;;;6.47;5.07;;;;;;;;;;5013043;28;20467;-77
2022/03/25 09:12:43;;;;;;;6.90;5.18;;;;;;;;;;5016829;28;20048;-76
2022/03/25 09:15:09;;;;;;;9.38;6.40;;;;;;;;;;5012678;28;20076;-77
2022/03/25 09:17:36;;;;;;;5.70;4.22;;;;;;;;;;5012777;28;20029;-77
2022/03/25 09:20:03;;;;;;;7.85;4.50;;;;;;;;;;5012658;28;20026;-76
2022/03/25 09:22:30;;;;;;;8.95;5.00;;;;;;;;;;5009503;28;20025;-76
2022/03/25 09:24:58;;;;;;;9.13;4.78;;;;;;;;;;5013622;28;20091;-76
2022/03/25 09:27:26;;;;;;;8.27;4.70;;;;;;;;;;5007687;28;20030;-75
2022/03/25 09:29:52;;;;;;;8.70;5.18;;;;;;;;;;5012705;28;20025;-75
2022/03/25 09:32:17;;;;;;;6.18;4.32;;;;;;;;;;5001202;28;20072;-74
2022/03/25 09:37:27;;;;;;;9.90;5.45;;;;;;;;;;5016356;28;20045;-74
2022/03/25 09:39:52;;;;;;;8.13;4.38;;;;;;;;;;5017019;28;20022;-75
2022/03/25 09:42:19;;;;;;;7.80;4.13;;;;;;;;;;5010926;28;20033;-75
2022/03/25 09:44:45;;;;;;;9.00;5.53;;;;;;;;;;5017280;28;20109;-76
2022/03/25 09:47:12;;;;;;;5.65;4.78;;;;;;;;;;5008418;28;20034;-73
2022/03/25 09:49:38;;;;;;;12.57;4.53;;;;;;;;;;5017233;28;20101;-74
2022/03/25 09:52:05;;;;;;;6.22;3.55;;;;;;;;;;5016658;28;20104;-75
2022/03/25 09:54:34;;;;;;;6.53;3.80;;;;;;;;;;5015581;28;20428;-74
2022/03/25 09:57:02;;;;;;;6.97;3.17;;;;;;;;;;4998853;28;20029;-75
2022/03/25 09:59:35;;;;;;;5.63;3.65;;;;;;;;;;5007059;28;20021;-73
2022/03/25 10:02:04;;;;;;;9.27;4.95;;;;;;;;;;5014231;28;20160;-74
2022/03/25 10:04:41;;;;;;;5.75;3.85;;;;;;;;;;5015398;28;20088;-75
2022/03/25 10:07:30;;;;;;;6.00;4.35;;;;;;;;;;5016480;28;20092;-74
2022/03/25 10:10:07;;;;;;;7.45;4.55;;;;;;;;;;5015004;28;20044;-72
2022/03/25 10:12:36;;;;;;;7.10;4.53;;;;;;;;;;5016150;28;20029;-74
2022/03/25 10:15:16;;;;;;;6.07;3.90;;;;;;;;;;5009089;28;20040;-74
2022/03/25 10:18:04;;;;;;;5.07;2.85;;;;;;;;;;5024444;28;20567;-73
2022/03/25 10:20:33;;;;;;;3.80;2.72;;;;;;;;;;5008092;28;20359;-73
2022/03/25 10:23:19;;;;;;;6.45;3.55;;;;;;;;;;5016244;28;20025;-73
2022/03/25 10:25:55;;;;;;;5.72;3.65;;;;;;;;;;5013654;28;20033;-75
2022/03/25 10:28:46;;;;;;;7.07;3.28;;;;;;;;;;5009834;28;20394;-73
2022/03/25 10:31:17;;;;;;;7.10;3.95;;;;;;;;;;5013067;28;20072;-72
2022/03/25 10:33:44;;;;;;;2.67;2.45;;;;;;;;;;5012302;28;20378;-73
2022/03/25 10:36:12;;;;;;;3.95;2.50;;;;;;;;;;5007288;28;20117;-72
2022/03/25 10:38:45;;;;;;;6.07;4.10;;;;;;;;;;5011991;28;20029;-73
2022/03/25 10:41:17;;;;;;;6.40;4.72;;;;;;;;;;5013455;28;20064;-74
2022/03/25 10:44:04;;;;;;;5.30;3.00;;;;;;;;;;5008055;28;20120;-74
2022/03/25 10:46:33;;;;;;;6.60;3.33;;;;;;;;;;5015344;28;20034;-73
2022/03/25 10:49:05;;;;;;;9.63;3.95;;;;;;;;;;5015150;28;20072;-73
2022/03/25 10:51:31;;;;;;;5.80;3.53;;;;;;;;;;5010005;28;20060;-73
2022/03/25 10:54:07;;;;;;;5.55;3.40;;;;;;;;;;5006144;28;20406;-73
2022/03/25 10:56:48;;;;;;;5.80;4.18;;;;;;;;;;5013703;28;20034;-73
2022/03/25 10:59:24;;;;;;;7.55;4.05;;;;;;;;;;5008938;28;20021;-73
2022/03/25 11:01:54;;;;;;;8.73;5.22;;;;;;;;;;5009535;28;20041;-73
2022/03/25 11:04:22;;;;;;;6.70;4.68;;;;;;;;;;5015566;28;20065;-73
2022/03/25 11:06:47;;;;;;;5.85;4.82;;;;;;;;;;5014834;28;20045;-73
2022/03/25 11:09:16;;;;;;;3.47;3.10;;;;;;;;;;5014500;28;20025;-74
2022/03/25 11:11:46;;;;;;;4.95;3.40;;;;;;;;;;5014648;28;20061;-73
2022/03/25 11:14:12;;;;;;;10.07;3.75;;;;;;;;;;5001456;28;20439;-75
2022/03/25 11:16:45;;;;;;;5.85;4.13;;;;;;;;;;5013617;28;20048;-73
2022/03/25 11:19:11;;;;;;;4.28;3.67;;;;;;;;;;5013975;28;20104;-73
2022/03/25 11:21:40;;;;;;;4.57;3.97;;;;;;;;;;5013426;28;20038;-74
2022/03/25 11:24:12;;;;;;;9.50;4.57;;;;;;;;;;5014018;28;20025;-73
2022/03/25 11:26:40;;;;;;;4.82;3.63;;;;;;;;;;5013567;28;20508;-74
2022/03/25 11:29:10;;;;;;;5.45;4.10;;;;;;;;;;5012698;28;20021;-74
2022/03/25 11:32:03;;;;;;;8.48;4.88;;;;;;;;;;4997584;28;20030;-74
2022/03/25 11:34:39;;;;;;;5.40;3.97;;;;;;;;;;5014710;28;20022;-74
2022/03/25 11:37:27;;;;;;;8.02;4.65;;;;;;;;;;4997287;28;20457;-77
2022/03/25 11:40:25;;;;;;;5.22;3.53;;;;;;;;;;5011163;28;20056;-79
2022/03/25 11:42:56;;;;;;;6.55;4.45;;;;;;;;;;5009940;28;20666;-83
2022/03/25 11:45:39;;;;;;;3.60;3.28;;;;;;;;;;5014038;28;20026;-76
2022/03/25 11:48:04;;;;;;;7.35;3.40;;;;;;;;;;5007106;28;20100;-76
2022/03/25 11:50:34;;;;;;;7.80;4.55;;;;;;;;;;5013471;28;20033;-76
2022/03/25 11:53:22;;;;;;;6.07;4.45;;;;;;;;;;5014335;28;20030;-76
2022/03/25 11:56:11;;;;;;;6.63;4.55;;;;;;;;;;5008174;28;20021;-75
2022/03/25 11:58:39;;;;;;;6.47;4.45;;;;;;;;;;5012339;28;20058;-75
2022/03/25 12:01:17;;;;;;;6.43;4.60;;;;;;;;;;5006001;28;20026;-75
2022/03/25 12:03:50;;;;;;;7.45;3.30;;;;;;;;;;5012714;28;20450;-76
2022/03/25 12:06:17;;;;;;;3.85;2.35;;;;;;;;;;5013434;28;20040;-76
2022/03/25 12:08:58;;;;;;;15.52;4.82;;;;;;;;;;5010226;28;20026;-75
2022/03/25 12:11:52;;;;;;;4.80;3.17;;;;;;;;;;5012518;28;20100;-76
2022/03/25 12:14:26;;;;;;;4.43;2.67;;;;;;;;;;5010816;28;20029;-76
2022/03/25 12:16:51;;;;;;;7.38;4.22;;;;;;;;;;5011176;28;20411;-75
2022/03/25 12:19:25;;;;;;;9.43;4.40;;;;;;;;;;5013268;28;20026;-76
2022/03/25 12:22:11;;;;;;;3.88;2.72;;;;;;;;;;5013544;28;20061;-78
2022/03/25 12:24:37;;;;;;;3.13;2.78;;;;;;;;;;5009927;28;20038;-76
2022/03/25 12:30:35;;;;;;;3.65;2.88;;;;;;;;;;5012650;28;20096;-76
2022/03/25 12:33:10;;;;;;;4.03;3.22;;;;;;;;;;5004678;28;20025;-77
2022/03/25 12:35:38;;;;;;;6.07;4.05;;;;;;;;;;4996321;28;20109;-77
2022/03/25 12:38:21;;;;;;;4.97;4.22;;;;;;;;;;5013435;28;20340;-77
2022/03/25 12:40:49;;;;;;;5.28;3.58;;;;;;;;;;5013652;28;20053;-77
2022/03/25 12:43:19;;;;;;;8.45;3.58;;;;;;;;;;4996370;28;20405;-76
2022/03/25 12:45:46;;;;;;;4.43;3.10;;;;;;;;;;5012477;28;20091;-75
2022/03/25 12:48:19;;;;;;;7.40;3.72;;;;;;;;;;5012097;28;20025;-78
2022/03/25 12:50:47;;;;;;;3.03;2.13;;;;;;;;;;5012818;28;20029;-78
2022/03/25 12:53:13;;;;;;;2.72;2.47;;;;;;;;;;5012073;28;20482;-77
2022/03/25 12:55:39;;;;;;;4.55;2.58;;;;;;;;;;5013331;28;20096;-77
2022/03/25 12:58:09;;;;;;;8.18;3.83;;;;;;;;;;5014066;28;20107;-76
2022/03/25 13:00:43;;;;;;;6.20;2.97;;;;;;;;;;5012490;28;20522;-78
2022/03/25 13:03:10;;;;;;;4.68;3.85;;;;;;;;;;4996691;28;20034;-78
2022/03/25 13:05:36;;;;;;;9.10;4.10;;;;;;;;;;5009286;28;20030;-78
2022/03/25 13:08:01;;;;;;;5.45;3.33;;;;;;;;;;5013045;28;20030;-77
2022/03/25 13:10:30;;;;;;;10.80;4.05;;;;;;;;;;5010152;28;20043;-77
2022/03/25 13:12:59;;;;;;;11.15;3.40;;;;;;;;;;5014830;28;20103;-77
2022/03/25 13:15:29;;;;;;;5.45;3.63;;;;;;;;;;5016942;28;20072;-78
2022/03/25 13:17:57;;;;;;;5.78;3.83;;;;;;;;;;4999774;28;20096;-77
2022/03/25 13:20:26;;;;;;;4.10;3.05;;;;;;;;;;4999962;28;20026;-79
2022/03/25 13:23:04;;;;;;;4.95;2.75;;;;;;;;;;5015478;28;20074;-78
2022/03/25 13:25:36;;;;;;;7.03;4.00;;;;;;;;;;4999813;28;20114;-78
2022/03/25 13:28:03;;;;;;;5.53;3.13;;;;;;;;;;5016335;28;20092;-77
2022/03/25 13:30:29;;;;;;;5.05;2.72;;;;;;;;;;5016888;28;20145;-78
2022/03/25 13:33:03;;;;;;;6.00;4.07;;;;;;;;;;5016730;28;20025;-76
2022/03/25 13:35:34;;;;;;;5.47;3.75;;;;;;;;;;5012015;28;20033;-78
2022/03/25 13:38:01;;;;;;;6.38;4.38;;;;;;;;;;5015369;28;20053;-76
2022/03/25 13:40:33;;;;;;;4.88;3.05;;;;;;;;;;5015757;28;20344;-77
2022/03/25 13:42:59;;;;;;;7.57;5.40;;;;;;;;;;5016231;28;20026;-77
2022/03/25 13:45:25;;;;;;;4.72;3.15;;;;;;;;;;5006359;28;20022;-78
2022/03/25 13:48:19;;;;;;;3.78;2.47;;;;;;;;;;5015047;28;20084;-78
2022/03/25 13:50:53;;;;;;;7.07;3.97;;;;;;;;;;4999605;28;20038;-78
2022/03/25 13:53:33;;;;;;;5.85;4.32;;;;;;;;;;5010498;28;20116;-77
2022/03/25 13:56:11;;;;;;;8.38;4.63;;;;;;;;;;5015549;28;20071;-78
2022/03/25 13:58:38;;;;;;;4.10;3.72;;;;;;;;;;5016533;28;20018;-78
2022/03/25 14:01:06;;;;;;;6.20;4.22;;;;;;;;;;4998952;28;20053;-77
2022/03/25 14:03:35;;;;;;;3.47;2.35;;;;;;;;;;5006140;28;20034;-77
2022/03/25 14:06:11;;;;;;;3.58;2.88;;;;;;;;;;5007775;28;20482;-77
2022/03/25 14:08:37;;;;;;;6.03;4.57;;;;;;;;;;5015252;28;20045;-77
2022/03/25 14:11:06;;;;;;;3.55;3.05;;;;;;;;;;5005566;28;20032;-78
2022/03/25 14:13:34;;;;;;;6.35;3.10;;;;;;;;;;5016586;28;20387;-79
2022/03/25 14:16:16;;;;;;;4.22;2.75;;;;;;;;;;4998765;28;20030;-77
2022/03/25 14:18:53;;;;;;;8.70;4.15;;;;;;;;;;4999269;28;20033;-77
2022/03/25 14:21:27;;;;;;;11.10;4.88;;;;;;;;;;5010043;28;20029;-79
2022/03/25 14:24:30;;;;;;;5.13;3.28;;;;;;;;;;5015664;28;20367;-77
2022/03/25 14:26:40;;;;;;;3.58;2.78;;;;;;;;;;5012147;28;20410;-78
2022/03/25 14:29:07;;;;;;;6.78;3.28;;;;;;;;;;5025163;28;20053;-78
2022/03/25 14:31:34;;;;;;;5.53;3.85;;;;;;;;;;5014977;28;20026;-77
2022/03/25 14:34:02;;;;;;;5.50;3.05;;;;;;;;;;5015907;28;20045;-79
2022/03/25 14:36:28;;;;;;;9.40;2.95;;;;;;;;;;4986494;28;20022;-77
2022/03/25 14:38:55;;;;;;;10.50;4.25;;;;;;;;;;5015707;28;20595;-77
2022/03/25 14:41:27;;;;;;;4.18;3.10;;;;;;;;;;5026646;28;20108;-78
2022/03/25 14:43:55;;;;;;;6.53;3.60;;;;;;;;;;5015707;28;20044;-78
2022/03/25 14:46:23;;;;;;;4.10;2.90;;;;;;;;;;5001902;28;20034;-77
2022/03/25 14:48:49;;;;;;;3.60;2.08;;;;;;;;;;5014557;28;20084;-77
2022/03/25 14:51:14;;;;;;;3.60;3.00;;;;;;;;;;5012661;28;20037;-79
2022/03/25 14:53:42;;;;;;;8.07;3.55;;;;;;;;;;4998089;28;20030;-77
2022/03/25 14:56:07;;;;;;;4.85;3.53;;;;;;;;;;5012432;28;20037;-78
2022/03/25 14:58:33;;;;;;;7.20;3.63;;;;;;;;;;5012489;28;20025;-77
2022/03/25 15:00:58;;;;;;;6.65;4.82;;;;;;;;;;4998018;28;20029;-78
2022/03/25 15:03:25;;;;;;;3.97;2.88;;;;;;;;;;5015373;28;20029;-78
2022/03/25 15:05:53;;;;;;;4.80;3.15;;;;;;;;;;4997562;28;20422;-77
2022/03/25 15:08:21;;;;;;;3.65;3.00;;;;;;;;;;5015279;28;20057;-77